Time;durP1;ratioP1;P1;durP2;ratioP2;P2;SDS_P1;SDS_P2;PMS_P1;PMS_P2;Temp;Humidity;BMP_temperature;BMP_pressure;BME280_temperature;BME280_humidity;BME280_pressure;Samples;Min_cycle;Max_cycle;Signal;HPM_P1;HPM_P2
2022/05/05 00:02:09;;;;;;;2.63;1.50;;;;;;;3.98;60.69;99898.34;5120130;27;20047;-46
2022/05/05 00:04:35;;;;;;;2.80;1.40;;;;;;;3.96;60.96;99896.66;5107092;28;20047;-45
2022/05/05 00:07:02;;;;;;;1.88;1.05;;;;;;;3.93;60.98;99894.94;5101825;28;20043;-46
2022/05/05 00:09:28;;;;;;;2.22;1.10;;;;;;;3.93;61.04;99905.22;5107348;28;20074;-48
2022/05/05 00:14:40;;;;;;;2.67;1.13;;;;;;;3.73;60.96;99878.72;5102005;28;20046;-47
2022/05/05 00:17:07;;;;;;;2.20;1.30;;;;;;;3.90;60.71;99902.69;5089632;28;20486;-47
2022/05/05 00:19:36;;;;;;;1.90;1.30;;;;;;;3.89;60.83;99906.09;5090400;28;20423;-48
2022/05/05 00:22:03;;;;;;;2.63;1.17;;;;;;;3.86;60.61;99908.72;5109802;28;20581;-47
2022/05/05 00:24:29;;;;;;;2.17;1.05;;;;;;;3.83;60.91;99909.56;5102978;28;20032;-44
2022/05/05 00:26:56;;;;;;;3.67;1.42;;;;;;;3.80;60.99;99919.00;5093782;28;20047;-46
2022/05/05 00:29:22;;;;;;;4.00;1.20;;;;;;;3.76;61.13;99923.31;5095502;28;20071;-45
2022/05/05 00:31:49;;;;;;;3.17;1.17;;;;;;;3.66;61.30;99905.34;5114145;28;20039;-48
2022/05/05 00:34:15;;;;;;;2.25;1.25;;;;;;;3.73;61.08;99925.00;5098761;27;20047;-45
2022/05/05 00:36:41;;;;;;;1.60;1.20;;;;;;;3.73;61.24;99922.44;5095128;28;20054;-45
2022/05/05 00:39:07;;;;;;;2.88;1.40;;;;;;;3.71;61.52;99930.19;5090957;28;20062;-48
2022/05/05 00:41:34;;;;;;;2.70;1.50;;;;;;;3.68;61.18;99927.59;5100264;28;20131;-50
2022/05/05 00:44:02;;;;;;;3.38;1.20;;;;;;;3.66;61.10;99931.91;5096714;27;20046;-47
2022/05/05 00:46:29;;;;;;;1.63;1.25;;;;;;;3.64;61.17;99927.63;5110924;28;20043;-46
2022/05/05 00:48:55;;;;;;;8.13;2.00;;;;;;;3.63;61.09;99924.19;5109416;28;20036;-49
2022/05/05 00:51:21;;;;;;;3.17;1.70;;;;;;;3.61;61.10;99941.31;5093327;28;20043;-46
2022/05/05 00:53:47;;;;;;;3.10;1.60;;;;;;;3.51;61.04;99920.81;5099843;28;20096;-48
2022/05/05 00:56:14;;;;;;;7.32;2.22;;;;;;;3.49;61.05;99927.66;5094185;28;20122;-45
2022/05/05 00:58:42;;;;;;;3.40;2.33;;;;;;;3.56;60.87;99945.63;5094298;28;20066;-45
2022/05/05 01:01:09;;;;;;;7.45;2.33;;;;;;;3.56;60.82;99945.63;5094044;28;20122;-47
2022/05/05 01:03:36;;;;;;;4.95;2.55;;;;;;;3.48;60.91;99937.09;5094431;28;20055;-49
2022/05/05 01:06:03;;;;;;;6.95;2.42;;;;;;;3.53;60.96;99953.34;5113210;28;20042;-47
2022/05/05 01:08:29;;;;;;;4.57;2.35;;;;;;;3.52;61.15;99956.78;5110487;28;20047;-47
2022/05/05 01:10:55;;;;;;;4.88;2.55;;;;;;;3.49;61.07;99953.38;5101186;28;20042;-46
2022/05/05 01:13:21;;;;;;;5.20;2.17;;;;;;;3.48;61.09;99960.22;5105307;28;20044;-45
2022/05/05 01:15:47;;;;;;;2.60;1.80;;;;;;;3.45;61.04;99970.50;5102152;28;20044;-48
2022/05/05 01:18:12;;;;;;;4.78;2.00;;;;;;;3.42;61.34;99966.22;5100610;28;20135;-49
2022/05/05 01:20:49;;;;;;;4.65;1.77;;;;;;;3.41;61.30;99964.50;5103697;28;20040;-46
2022/05/05 01:23:15;;;;;;;3.22;1.75;;;;;;;3.44;61.30;99975.66;5111955;28;20104;-50
2022/05/05 01:28:26;;;;;;;2.85;1.60;;;;;;;3.39;61.23;99976.50;5093790;28;20040;-44
2022/05/05 01:30:52;;;;;;;3.60;1.80;;;;;;;3.37;61.18;99987.63;5092471;28;20048;-45
2022/05/05 01:33:19;;;;;;;3.85;1.77;;;;;;;3.37;61.40;99977.34;5102608;28;20078;-46
2022/05/05 01:35:48;;;;;;;3.92;1.52;;;;;;;3.38;61.26;99981.63;5109635;28;20164;-47
2022/05/05 01:38:20;;;;;;;4.32;3.20;;;;;;;3.32;61.57;99982.50;5096546;28;20085;-48
2022/05/05 01:40:46;;;;;;;3.33;2.80;;;;;;;3.19;61.35;99967.94;5074484;28;20503;-46
2022/05/05 01:43:21;;;;;;;4.28;2.90;;;;;;;3.37;61.71;99993.63;5092797;28;20131;-46
2022/05/05 01:45:47;;;;;;;4.75;2.95;;;;;;;3.38;61.53;100004.78;5102282;28;20127;-50
2022/05/05 01:48:13;;;;;;;3.53;2.17;;;;;;;3.38;61.54;100004.78;5108235;28;20123;-45
2022/05/05 01:50:39;;;;;;;5.38;3.10;;;;;;;3.30;61.50;99997.06;5103415;28;20035;-44
2022/05/05 01:53:05;;;;;;;10.82;2.15;;;;;;;3.38;61.09;100007.34;5107179;28;20043;-45
2022/05/05 01:55:33;;;;;;;3.45;1.95;;;;;;;3.37;61.16;100005.63;5100722;28;20125;-49
2022/05/05 01:57:59;;;;;;;3.25;1.70;;;;;;;3.36;61.38;100009.91;5091966;28;20259;-46
2022/05/05 02:00:26;;;;;;;2.63;1.70;;;;;;;3.35;61.37;100013.31;5099472;28;20539;-46
2022/05/05 02:02:52;;;;;;;3.65;1.63;;;;;;;3.35;61.25;100015.03;5095407;28;20044;-47
2022/05/05 02:05:18;;;;;;;3.63;2.00;;;;;;;3.25;61.29;100005.59;5096655;28;20046;-47
2022/05/05 02:07:45;;;;;;;2.03;1.38;;;;;;;3.26;61.40;100005.63;5091931;28;20096;-47
2022/05/05 02:10:15;;;;;;;3.63;1.80;;;;;;;3.34;61.42;100021.91;5096049;28;20046;-46
2022/05/05 02:12:42;;;;;;;2.92;1.80;;;;;;;3.34;61.71;100026.19;5104217;28;20035;-45
2022/05/05 02:15:10;;;;;;;4.55;1.80;;;;;;;3.32;61.89;100023.63;5098498;28;20035;-45
2022/05/05 02:17:38;;;;;;;12.15;2.90;;;;;;;3.34;61.82;100029.63;5107954;28;20043;-48
2022/05/05 02:20:05;;;;;;;3.63;2.00;;;;;;;3.35;61.65;100033.88;5090353;28;20079;-51
2022/05/05 02:22:31;;;;;;;2.42;1.60;;;;;;;3.34;61.42;100028.75;5092649;28;20085;-47
2022/05/05 02:24:57;;;;;;;4.30;1.75;;;;;;;3.41;61.37;100043.31;5091532;28;20074;-51
2022/05/05 02:27:23;;;;;;;4.63;1.85;;;;;;;3.42;61.71;100043.31;5107331;28;20071;-51
2022/05/05 02:29:51;;;;;;;2.60;1.65;;;;;;;3.46;61.28;100048.44;5102595;28;20040;-48
2022/05/05 02:32:17;;;;;;;7.53;1.60;;;;;;;3.49;61.47;100051.88;5092579;28;20035;-51
2022/05/05 02:34:46;;;;;;;3.25;1.75;;;;;;;3.53;61.19;100056.16;5096193;28;20043;-48
2022/05/05 02:39:58;;;;;;;2.47;1.45;;;;;;;3.47;60.61;100037.31;5093745;28;20149;-46
2022/05/05 02:42:24;;;;;;;1.83;1.10;;;;;;;3.66;60.59;100069.88;5107513;28;20040;-46
2022/05/05 02:44:50;;;;;;;4.38;1.58;;;;;;;3.68;60.59;100068.16;5096304;28;20092;-48
2022/05/05 02:47:16;;;;;;;4.75;1.52;;;;;;;3.71;60.23;100074.19;5105545;28;20043;-50
2022/05/05 02:49:41;;;;;;;2.17;1.30;;;;;;;3.73;60.01;100069.88;5099049;28;20510;-46
2022/05/05 02:52:08;;;;;;;2.55;1.27;;;;;;;3.75;59.89;100073.31;5102408;28;20036;-50
2022/05/05 02:54:54;;;;;;;3.65;1.58;;;;;;;3.80;59.74;100076.72;5111536;28;20043;-49
2022/05/05 02:57:23;;;;;;;3.30;1.52;;;;;;;3.86;59.61;100078.44;5111308;28;20134;-47
2022/05/05 02:59:55;;;;;;;2.90;1.75;;;;;;;3.91;59.38;100086.16;5103503;28;20515;-49
2022/05/05 03:02:21;;;;;;;3.30;1.58;;;;;;;3.80;58.88;100068.16;5102149;28;20097;-51
2022/05/05 03:04:47;;;;;;;2.78;1.63;;;;;;;3.93;58.90;100093.00;5091063;28;20509;-48
2022/05/05 03:07:14;;;;;;;7.45;1.48;;;;;;;3.92;58.89;100093.00;5089310;28;20432;-46
2022/05/05 03:09:40;;;;;;;4.13;1.60;;;;;;;3.98;58.62;100093.00;5091756;28;20419;-48
2022/05/05 03:12:07;;;;;;;6.97;1.67;;;;;;;4.00;58.53;100099.84;5090816;28;20028;-49
2022/05/05 03:14:33;;;;;;;2.33;1.40;;;;;;;4.03;58.38;100107.56;5094211;28;20035;-48
2022/05/05 03:16:59;;;;;;;3.28;1.40;;;;;;;4.05;58.29;100103.28;5109477;28;20062;-48
2022/05/05 03:19:26;;;;;;;2.25;1.38;;;;;;;4.07;58.03;100111.84;5087004;28;20477;-47
2022/05/05 03:21:53;;;;;;;5.20;1.70;;;;;;;4.02;57.98;100094.72;5104224;28;20050;-47
2022/05/05 03:24:19;;;;;;;4.57;1.42;;;;;;;4.16;58.10;100113.56;5111252;28;20496;-46
2022/05/05 03:26:44;;;;;;;8.25;1.90;;;;;;;4.19;58.12;100113.53;5107620;28;20039;-51
2022/05/05 03:29:10;;;;;;;5.97;1.40;;;;;;;4.22;57.72;100119.56;5101580;28;20073;-46
2022/05/05 03:31:36;;;;;;;2.67;1.10;;;;;;;4.04;57.72;100098.13;5091871;28;20074;-47
2022/05/05 03:34:03;;;;;;;1.80;1.30;;;;;;;4.25;57.49;100128.97;5092799;28;20101;-46
2022/05/05 03:36:28;;;;;;;2.15;1.40;;;;;;;4.24;57.06;100133.25;5105599;28;20461;-48
2022/05/05 03:38:54;;;;;;;2.95;1.27;;;;;;;4.11;56.95;100108.41;5111012;28;20047;-48
2022/05/05 03:41:21;;;;;;;2.38;1.17;;;;;;;4.22;57.30;100116.13;5090925;28;20051;-46
2022/05/05 03:43:47;;;;;;;1.83;1.00;;;;;;;4.34;56.67;100138.41;5099577;28;20507;-52
2022/05/05 03:46:13;;;;;;;2.55;1.30;;;;;;;4.36;56.65;100137.53;5109958;28;20040;-51
2022/05/05 03:48:39;;;;;;;4.15;1.25;;;;;;;4.40;56.25;100143.50;5107538;28;20074;-45
2022/05/05 03:51:04;;;;;;;2.08;1.35;;;;;;;4.44;56.24;100140.97;5093716;28;20032;-51
2022/05/05 03:53:30;;;;;;;2.17;1.10;;;;;;;4.49;55.88;100152.09;5089469;28;20039;-47
2022/05/05 03:55:56;;;;;;;3.10;1.30;;;;;;;4.49;55.46;100149.53;5090567;28;20539;-48
2022/05/05 03:58:22;;;;;;;4.18;1.40;;;;;;;4.53;55.29;100150.38;5090610;28;20126;-50
2022/05/05 04:00:47;;;;;;;6.00;1.25;;;;;;;4.60;54.94;100150.38;5109733;28;20059;-46
2022/05/05 04:03:31;;;;;;;1.55;1.00;;;;;;;4.63;55.22;100154.63;5111917;28;20576;-47
2022/05/05 04:06:04;;;;;;;3.38;1.50;;;;;;;4.55;54.70;100139.19;5093012;28;20112;-45
2022/05/05 04:08:30;;;;;;;3.28;1.73;;;;;;;4.75;54.50;100162.31;5094305;28;20050;-48
2022/05/05 04:10:56;;;;;;;2.40;1.50;;;;;;;4.71;54.62;100155.44;5094166;28;20507;-49
2022/05/05 04:13:23;;;;;;;5.68;1.23;;;;;;;4.84;54.23;100169.16;5103157;28;20126;-49
2022/05/05 04:15:48;;;;;;;4.40;1.60;;;;;;;4.90;53.58;100182.03;5110911;28;20039;-47
2022/05/05 04:18:15;;;;;;;3.33;1.35;;;;;;;4.95;53.53;100185.44;5111581;28;20144;-49
2022/05/05 04:20:43;;;;;;;6.22;1.92;;;;;;;5.00;53.00;100191.44;5114331;28;20130;-46
2022/05/05 04:23:10;;;;;;;3.42;1.70;;;;;;;5.03;52.96;100186.25;5114266;28;20423;-47
2022/05/05 04:25:43;;;;;;;11.00;1.90;;;;;;;5.07;52.31;100194.00;5096130;28;20040;-46
2022/05/05 04:28:10;;;;;;;5.55;1.88;;;;;;;5.08;52.46;100198.25;5104761;28;20035;-52
2022/05/05 04:30:37;;;;;;;4.40;1.70;;;;;;;5.13;52.02;100205.97;5097455;28;20043;-49
2022/05/05 04:33:03;;;;;;;9.80;2.58;;;;;;;5.08;51.36;100185.38;5093213;28;20031;-46
2022/05/05 04:35:30;;;;;;;5.90;2.70;;;;;;;5.25;51.42;100199.91;5108859;28;20036;-49
2022/05/05 04:37:56;;;;;;;4.93;2.22;;;;;;;5.31;51.34;100198.16;5111548;28;20121;-48
2022/05/05 04:40:22;;;;;;;5.88;1.80;;;;;;;5.34;51.29;100198.13;5112210;28;20038;-47
2022/05/05 04:42:48;;;;;;;4.20;1.70;;;;;;;5.39;50.11;100193.00;5103527;28;20515;-47
2022/05/05 04:45:13;;;;;;;2.78;1.48;;;;;;;5.44;49.50;100199.81;5101802;28;20048;-48
2022/05/05 04:47:39;;;;;;;6.05;1.73;;;;;;;5.52;48.91;100207.50;5110601;28;20043;-51
2022/05/05 04:50:08;;;;;;;2.70;1.55;;;;;;;5.58;48.31;100198.88;5111996;28;20074;-49
2022/05/05 04:52:33;;;;;;;4.28;1.63;;;;;;;5.58;48.14;100199.75;5112411;28;20066;-52
2022/05/05 04:55:00;;;;;;;2.40;1.70;;;;;;;5.67;47.61;100210.00;5101299;28;20448;-48
2022/05/05 04:57:26;;;;;;;3.95;1.25;;;;;;;5.75;47.51;100212.53;5101083;28;20024;-48
2022/05/05 04:59:52;;;;;;;2.08;1.25;;;;;;;5.65;47.00;100187.66;5104304;28;20495;-51
2022/05/05 05:02:18;;;;;;;5.45;1.10;;;;;;;5.88;46.49;100211.63;5107101;28;20134;-51
2022/05/05 05:04:43;;;;;;;1.67;1.13;;;;;;;5.93;45.80;100215.00;5104631;27;20464;-50
2022/05/05 05:07:09;;;;;;;3.58;2.03;;;;;;;5.99;45.60;100214.13;5093848;28;20036;-45
2022/05/05 05:09:35;;;;;;;2.55;1.23;;;;;;;5.93;45.07;100200.41;5092918;28;20063;-48
2022/05/05 05:12:01;;;;;;;2.80;1.05;;;;;;;6.03;44.97;100205.47;5097136;28;20055;-48
2022/05/05 05:14:27;;;;;;;5.65;1.50;;;;;;;6.18;44.99;100223.44;5097561;28;20069;-52
2022/05/05 05:16:53;;;;;;;4.35;0.90;;;;;;;6.14;44.23;100201.09;5112778;28;20063;-52
2022/05/05 05:19:19;;;;;;;10.45;1.30;;;;;;;6.28;43.80;100219.94;5111233;28;20040;-48
2022/05/05 05:21:45;;;;;;;2.35;1.00;;;;;;;6.38;43.23;100232.72;5099746;28;20125;-52
2022/05/05 05:24:12;;;;;;;7.10;1.55;;;;;;;6.47;43.24;100226.63;5100735;28;20051;-47
2022/05/05 05:26:38;;;;;;;9.88;2.30;;;;;;;6.58;42.89;100227.41;5091994;28;20411;-50
2022/05/05 05:29:03;;;;;;;3.25;1.02;;;;;;;6.70;42.05;100236.72;5099883;28;20040;-46
2022/05/05 05:31:29;;;;;;;6.53;3.20;;;;;;;6.79;41.55;100231.50;5109538;28;20035;-46
2022/05/05 05:33:55;;;;;;;7.70;1.00;;;;;;;6.87;40.44;100246.91;5103835;28;20530;-51
2022/05/05 05:36:20;;;;;;;5.70;1.48;;;;;;;6.89;40.71;100230.53;5110663;28;20519;-49
2022/05/05 05:38:46;;;;;;;6.13;1.05;;;;;;;7.02;40.27;100239.84;5112290;28;20058;-49
2022/05/05 05:41:12;;;;;;;4.75;0.70;;;;;;;7.13;40.26;100239.72;5111081;28;20564;-47
2022/05/05 05:43:39;;;;;;;3.30;0.70;;;;;;;7.27;39.10;100249.91;5111378;28;20043;-46
2022/05/05 05:46:04;;;;;;;1.85;0.70;;;;;;;7.21;38.29;100253.44;5109605;28;20104;-46
2022/05/05 05:48:30;;;;;;;4.85;1.00;;;;;;;7.27;38.93;100240.44;5107327;28;20431;-47
2022/05/05 05:50:56;;;;;;;4.65;0.70;;;;;;;7.38;38.13;100245.47;5096897;28;20399;-49
2022/05/05 05:53:22;;;;;;;3.10;1.27;;;;;;;7.46;38.12;100249.66;5111373;28;20149;-48
2022/05/05 05:55:48;;;;;;;2.78;0.75;;;;;;;7.60;37.55;100255.50;5111956;28;20039;-51
2022/05/05 05:58:13;;;;;;;2.75;0.60;;;;;;;7.62;37.13;100246.00;5110986;28;20055;-49
2022/05/05 06:00:39;;;;;;;1.33;0.60;;;;;;;7.65;37.08;100255.44;5107738;28;20126;-51
2022/05/05 06:05:50;;;;;;;1.95;0.77;;;;;;;8.00;36.92;100252.38;5104594;27;20118;-46
2022/05/05 06:08:15;;;;;;;1.65;0.98;;;;;;;8.12;36.75;100253.91;5093775;28;20134;-48
2022/05/05 06:10:41;;;;;;;2.75;0.68;;;;;;;8.31;36.47;100263.16;5091643;28;20496;-49
2022/05/05 06:13:07;;;;;;;5.28;1.10;;;;;;;8.44;36.09;100254.28;5091947;27;20461;-46
2022/05/05 06:15:33;;;;;;;0.50;0.45;;;;;;;8.44;35.45;100236.16;5111372;27;20069;-49
2022/05/05 06:17:59;;;;;;;2.22;0.70;;;;;;;8.73;34.84;100266.78;5099411;28;20040;-52
2022/05/05 06:20:25;;;;;;;3.47;0.70;;;;;;;8.90;33.97;100256.94;5080690;28;20063;-48
2022/05/05 06:22:51;;;;;;;4.93;0.60;;;;;;;9.37;33.59;100278.53;5105284;28;20126;-49
2022/05/05 06:25:19;;;;;;;2.90;0.50;;;;;;;10.11;32.58;100275.16;5111691;28;20035;-51
2022/05/05 06:27:45;;;;;;;3.25;0.65;;;;;;;11.70;29.58;100264.94;5110470;28;20043;-49
2022/05/05 06:30:13;;;;;;;0.75;0.60;;;;;;;13.08;27.55;100267.41;5120567;27;20087;-47
2022/05/05 06:32:42;;;;;;;4.03;0.85;;;;;;;14.46;26.39;100271.78;5111077;28;20803;-49
2022/05/05 06:35:09;;;;;;;;;;;;;;;15.75;25.18;100274.03;5110172;27;20411;-46
2022/05/05 06:37:35;;;;;;;8.93;0.98;;;;;;;16.94;23.18;100259.44;5111712;28;19923;-50
2022/05/05 06:40:03;;;;;;;0.88;0.70;;;;;;;18.22;22.05;100279.69;5108467;28;20149;-49
2022/05/05 06:42:30;;;;;;;9.77;1.65;;;;;;;18.42;21.85;100284.66;5091241;28;20048;-49
2022/05/05 06:44:56;;;;;;;2.17;0.80;;;;;;;17.92;21.05;100270.88;5089890;28;20040;-51
2022/05/05 06:47:21;;;;;;;3.90;1.10;;;;;;;19.20;20.02;100266.97;5110177;28;20146;-52
2022/05/05 06:49:47;;;;;;;13.82;1.60;;;;;;;20.10;19.30;100276.22;5091274;28;20039;-48
2022/05/05 06:52:13;;;;;;;15.88;2.25;;;;;;;20.26;19.14;100281.34;5093373;28;20105;-49
2022/05/05 06:54:39;;;;;;;15.07;1.70;;;;;;;20.75;18.31;100278.19;5109480;28;20044;-50
2022/05/05 06:57:05;;;;;;;2.83;0.90;;;;;;;20.35;18.69;100277.31;5093886;28;20054;-48
2022/05/05 06:59:31;;;;;;;3.33;0.95;;;;;;;19.75;18.57;100272.34;5090881;28;20533;-49
2022/05/05 07:02:01;;;;;;;1.67;0.77;;;;;;;19.26;18.92;100285.06;5118228;27;20051;-46
2022/05/05 07:07:13;;;;;;;2.60;0.63;;;;;;;17.66;20.07;100281.03;5114260;27;20535;-49
2022/05/05 07:12:31;;;;;;;4.47;1.10;;;;;;;19.71;18.29;100284.88;5115368;28;20066;-47
2022/05/05 07:14:57;;;;;;;1.65;0.93;;;;;;;21.48;16.97;100295.19;5095204;28;20047;-49
2022/05/05 07:17:24;;;;;;;2.33;1.00;;;;;;;23.30;15.34;100280.88;5114678;28;20047;-47
2022/05/05 07:19:50;;;;;;;1.63;0.95;;;;;;;24.08;13.89;100284.38;5103289;28;20130;-45
2022/05/05 07:22:16;;;;;;;3.55;0.70;;;;;;;25.01;13.65;100298.00;5109993;28;20036;-48
2022/05/05 07:24:42;;;;;;;4.00;0.90;;;;;;;25.86;13.41;100285.25;5115828;28;20404;-47
2022/05/05 07:27:09;;;;;;;3.13;1.20;;;;;;;26.65;13.07;100270.97;5091766;28;20040;-52
2022/05/05 07:29:35;;;;;;;3.38;1.13;;;;;;;27.37;12.01;100294.50;5093297;28;20052;-51
2022/05/05 07:32:01;;;;;;;1.02;0.80;;;;;;;27.81;12.00;100295.63;5092954;28;20038;-52
2022/05/05 07:34:27;;;;;;;11.02;4.90;;;;;;;28.45;11.79;100289.34;5100440;28;20050;-50
2022/05/05 07:36:53;;;;;;;6.97;1.13;;;;;;;28.68;11.44;100287.06;5100844;27;20503;-53
2022/05/05 07:39:19;;;;;;;5.32;1.58;;;;;;;28.85;11.21;100288.88;5098214;28;20062;-47
2022/05/05 07:41:45;;;;;;;3.50;1.00;;;;;;;29.15;10.81;100303.69;5076362;28;20047;-48
2022/05/05 07:44:11;;;;;;;5.35;1.00;;;;;;;29.42;10.58;100298.19;5106798;28;20158;-47
2022/05/05 07:46:37;;;;;;;4.63;3.00;;;;;;;29.78;10.36;100302.41;5096756;28;20038;-46
2022/05/05 07:49:04;;;;;;;4.40;1.50;;;;;;;29.78;10.38;100305.09;5098739;28;20092;-47
2022/05/05 07:51:30;;;;;;;7.53;1.20;;;;;;;29.84;10.49;100301.75;5114843;28;20553;-48
2022/05/05 07:56:41;;;;;;;2.67;0.98;;;;;;;29.95;10.05;100291.78;5111220;27;20046;-51
2022/05/05 07:59:07;;;;;;;21.63;4.50;;;;;;;30.26;10.24;100274.94;5101246;28;20043;-50
2022/05/05 08:01:33;;;;;;;5.70;1.30;;;;;;;30.83;9.33;100285.75;5100521;28;20039;-51
2022/05/05 08:03:59;;;;;;;15.85;2.03;;;;;;;31.09;9.81;100291.81;5098514;28;20572;-50
2022/05/05 08:06:24;;;;;;;5.30;1.48;;;;;;;29.04;10.49;100294.09;5094516;27;20040;-51
2022/05/05 08:08:50;;;;;;;15.10;1.83;;;;;;;29.18;10.62;100300.69;5101761;27;20507;-52
2022/05/05 08:11:16;;;;;;;3.58;1.10;;;;;;;29.98;10.40;100304.88;5102422;28;20031;-51
2022/05/05 08:13:42;;;;;;;4.97;1.38;;;;;;;30.55;9.97;100296.00;5098055;28;20134;-50
2022/05/05 08:16:08;;;;;;;3.03;1.13;;;;;;;30.13;9.66;100292.53;5105012;27;20541;-53
2022/05/05 08:18:34;;;;;;;2.30;1.20;;;;;;;29.48;10.07;100284.16;5112598;28;20043;-51
2022/05/05 08:20:59;;;;;;;2.05;1.10;;;;;;;29.55;9.83;100295.09;5105758;27;20067;-54
2022/05/05 08:23:26;;;;;;;1.20;1.05;;;;;;;29.50;9.67;100305.47;5110854;27;20533;-47
2022/05/05 08:28:39;;;;;;;1.88;1.00;;;;;;;28.46;9.95;100291.88;5123931;27;20043;-50
2022/05/05 08:31:04;;;;;;;1.48;1.15;;;;;;;29.03;9.75;100295.91;5122651;27;20125;-53
2022/05/05 08:33:30;;;;;;;1.73;1.17;;;;;;;28.82;10.17;100282.03;5107501;27;20155;-54
2022/05/05 08:35:57;;;;;;;11.25;2.00;;;;;;;29.82;10.01;100290.38;5100678;28;20044;-52
2022/05/05 08:38:23;;;;;;;3.63;1.40;;;;;;;30.66;9.74;100279.56;5112089;28;20156;-50
2022/05/05 08:40:49;;;;;;;3.28;1.30;;;;;;;31.19;9.05;100283.59;5112284;28;20127;-52
2022/05/05 08:43:15;;;;;;;7.13;1.67;;;;;;;31.61;9.25;100291.41;5113530;27;20074;-51
2022/05/05 08:45:41;;;;;;;7.68;1.27;;;;;;;31.98;9.18;100278.13;5109667;27;20130;-50
2022/05/05 08:48:07;;;;;;;2.78;1.25;;;;;;;32.10;8.93;100291.19;5116498;27;20039;-56
2022/05/05 08:50:35;;;;;;;5.95;1.40;;;;;;;32.20;8.79;100289.13;5123674;27;20039;-46
2022/05/05 08:53:02;;;;;;;7.90;1.77;;;;;;;32.38;8.71;100276.25;5115240;27;20041;-49
2022/05/05 08:55:28;;;;;;;3.22;1.42;;;;;;;32.38;8.96;100279.78;5119421;27;20119;-49
2022/05/05 08:57:55;;;;;;;14.45;1.55;;;;;;;31.94;8.81;100284.03;5116087;27;20077;-49
2022/05/05 09:00:20;;;;;;;3.90;1.60;;;;;;;32.09;8.73;100278.72;5120939;27;20054;-49
2022/05/05 09:02:53;;;;;;;13.70;2.13;;;;;;;32.42;8.50;100280.25;5113660;27;20048;-52
2022/05/05 09:05:44;;;;;;;9.43;2.38;;;;;;;33.29;8.58;100297.72;5101117;27;20048;-51
2022/05/05 09:08:25;;;;;;;9.00;1.30;;;;;;;30.90;9.37;100278.72;5111090;28;20419;-51
2022/05/05 09:10:52;;;;;;;11.13;1.77;;;;;;;29.11;10.20;100284.41;5121065;27;20027;-51
2022/05/05 09:13:22;;;;;;;10.68;1.52;;;;;;;30.11;9.97;100291.84;5109879;28;20034;-50
2022/05/05 09:15:47;;;;;;;6.22;1.88;;;;;;;31.00;9.45;100290.13;5101367;27;20044;-50
2022/05/05 09:18:17;;;;;;;5.63;1.50;;;;;;;32.04;8.77;100295.41;5107112;28;20101;-49
2022/05/05 09:21:03;;;;;;;1.85;1.25;;;;;;;32.84;8.69;100300.50;5105818;28;20036;-48
2022/05/05 09:24:34;;;;;;;1.88;1.30;;;;;;;33.17;8.25;100297.38;5114870;27;20049;-48
2022/05/05 09:26:29;;;;;;;4.65;1.55;;;;;;;33.24;8.38;100289.38;5104868;28;20048;-48
2022/05/05 09:28:55;;;;;;;2.80;1.30;;;;;;;33.36;8.13;100297.84;5099918;27;20078;-47
2022/05/05 09:31:22;;;;;;;5.28;1.60;;;;;;;32.07;8.45;100299.63;5101185;28;20044;-52
2022/05/05 09:33:48;;;;;;;6.15;1.50;;;;;;;32.50;8.44;100295.53;5099697;27;20415;-48
2022/05/05 09:36:15;;;;;;;4.22;1.50;;;;;;;32.94;8.29;100301.09;5093373;28;20141;-50
2022/05/05 09:38:56;;;;;;;4.65;1.70;;;;;;;33.20;8.24;100299.69;5107567;27;20138;-49
2022/05/05 09:41:28;;;;;;;1.30;1.20;;;;;;;32.79;7.86;100301.03;5114465;27;20089;-48
2022/05/05 09:43:55;;;;;;;2.38;1.73;;;;;;;32.82;7.76;100287.19;5111442;27;20047;-51
2022/05/05 09:46:26;;;;;;;2.53;1.50;;;;;;;33.22;7.90;100293.28;5108605;28;20032;-52
2022/05/05 09:49:18;;;;;;;6.78;1.63;;;;;;;33.53;7.94;100300.19;5108526;28;20540;-49
2022/05/05 09:57:39;;;;;;;2.83;1.40;;;;;;;33.48;7.96;100297.22;5097713;28;20445;-48
2022/05/05 09:57:40;;;;;;;1.58;1.33;;;;;;;33.20;7.94;100298.84;5098871;27;20530;-50
2022/05/05 10:05:42;;;;;;;4.32;1.85;;;;;;;34.18;7.80;100299.38;5115119;27;20413;-49
2022/05/05 10:08:09;;;;;;;7.50;2.40;;;;;;;34.51;7.80;100288.97;5114198;27;20039;-51
2022/05/05 10:10:37;;;;;;;5.47;2.63;;;;;;;34.55;7.52;100290.25;5103467;28;20070;-51
2022/05/05 10:13:04;;;;;;;3.83;1.23;;;;;;;33.65;7.63;100295.16;5110816;28;20089;-49
2022/05/05 10:15:30;;;;;;;3.22;1.30;;;;;;;32.51;8.16;100275.63;5109288;28;20507;-47
2022/05/05 10:17:56;;;;;;;4.80;1.60;;;;;;;32.80;8.00;100286.56;5113828;27;20088;-51
2022/05/05 10:20:22;;;;;;;10.95;1.70;;;;;;;33.35;7.67;100290.78;5113290;27;20058;-47
2022/05/05 10:22:56;;;;;;;9.07;2.17;;;;;;;33.68;7.82;100283.16;5118902;27;20066;-47
2022/05/05 10:25:25;;;;;;;2.53;1.40;;;;;;;33.88;7.55;100289.66;5117872;27;20039;-50
2022/05/05 10:27:51;;;;;;;17.20;3.15;;;;;;;34.07;7.65;100290.97;5109983;27;20085;-48
2022/05/05 10:30:34;;;;;;;9.10;2.15;;;;;;;34.29;7.93;100279.19;5112206;27;20039;-49
2022/05/05 10:33:04;;;;;;;3.28;1.50;;;;;;;34.39;7.44;100291.34;5108607;27;20131;-53
2022/05/05 10:35:38;;;;;;;3.63;1.65;;;;;;;34.35;7.10;100284.66;5096196;28;20055;-49
2022/05/05 10:38:40;;;;;;;15.50;2.97;;;;;;;34.42;7.50;100287.44;5107573;28;20043;-50
2022/05/05 10:41:31;;;;;;;13.18;3.38;;;;;;;33.99;7.64;100292.72;5120735;27;20510;-50
2022/05/05 10:44:19;;;;;;;4.43;2.03;;;;;;;34.00;7.46;100289.00;5096741;28;20085;-48
2022/05/05 10:46:51;;;;;;;;;;;;;;;33.79;7.57;100286.25;5108310;28;20526;-44
2022/05/05 10:49:36;;;;;;;2.95;1.70;;;;;;;33.86;7.18;100275.56;5102841;28;19916;-47
2022/05/05 10:52:10;;;;;;;3.28;1.65;;;;;;;33.99;7.21;100263.03;5090839;28;20040;-49
2022/05/05 10:54:41;;;;;;;4.90;1.90;;;;;;;34.22;7.25;100262.09;5101492;27;20034;-48
2022/05/05 10:57:25;;;;;;;3.92;1.83;;;;;;;34.47;7.33;100270.66;5099611;28;20360;-49
2022/05/05 11:00:19;;;;;;;8.80;2.50;;;;;;;34.59;7.44;100266.41;5106660;28;20546;-51
2022/05/05 11:02:58;;;;;;;9.98;2.28;;;;;;;34.71;7.46;100276.50;5107026;28;20111;-53
2022/05/05 11:05:28;;;;;;;6.18;2.10;;;;;;;34.73;7.27;100277.16;5110215;27;20514;-51
2022/05/05 11:07:56;;;;;;;4.03;1.75;;;;;;;34.71;7.46;100264.88;5106689;28;20040;-51
2022/05/05 11:11:41;;;;;;;9.40;2.38;;;;;;;34.86;7.30;100263.75;5106066;28;20043;-51
2022/05/05 11:13:44;;;;;;;8.20;2.08;;;;;;;34.87;7.41;100272.69;5090086;28;20043;-48
2022/05/05 11:22:11;;;;;;;1.65;1.55;;;;;;;32.95;7.35;100265.03;5109551;28;20147;-49
2022/05/05 11:24:46;;;;;;;3.45;1.70;;;;;;;33.13;7.46;100268.25;5104174;28;20423;-52
2022/05/05 11:27:24;;;;;;;6.97;2.22;;;;;;;33.52;7.40;100247.28;5114172;28;20142;-50
2022/05/05 11:29:50;;;;;;;9.02;1.98;;;;;;;33.69;7.24;100257.91;5113927;28;20035;-48
2022/05/05 11:32:17;;;;;;;2.88;1.77;;;;;;;33.71;6.99;100261.25;5114387;28;20418;-47
2022/05/05 11:34:46;;;;;;;4.43;1.77;;;;;;;33.52;7.16;100266.16;5122580;28;20035;-49
2022/05/05 11:37:12;;;;;;;6.27;1.90;;;;;;;33.72;7.68;100260.19;5122192;27;20126;-46
2022/05/05 11:39:38;;;;;;;4.85;4.20;;;;;;;33.89;7.52;100259.81;5105484;28;20077;-51
2022/05/05 11:42:22;;;;;;;10.35;2.60;;;;;;;34.21;7.44;100260.41;5109374;28;20048;-51
2022/05/05 11:44:48;;;;;;;3.47;1.75;;;;;;;34.01;7.12;100261.00;5109108;28;20507;-50
2022/05/05 11:47:21;;;;;;;19.25;2.80;;;;;;;33.89;7.31;100254.41;5093096;28;20040;-53
2022/05/05 11:49:52;;;;;;;7.35;2.50;;;;;;;34.02;7.26;100267.25;5101709;28;20417;-45
2022/05/05 11:52:20;;;;;;;3.42;1.92;;;;;;;33.99;7.14;100262.19;5119278;28;20050;-51
2022/05/05 11:54:54;;;;;;;9.65;2.50;;;;;;;34.16;7.33;100262.81;5118045;27;20499;-50
2022/05/05 11:57:39;;;;;;;7.88;2.28;;;;;;;34.23;7.22;100251.06;5120899;28;20047;-47
2022/05/05 12:02:56;;;;;;;8.90;2.42;;;;;;;33.80;7.29;100252.03;5117955;28;20047;-47
2022/05/05 12:05:24;;;;;;;7.68;2.05;;;;;;;33.79;7.40;100251.19;5119009;27;20409;-52
2022/05/05 12:07:51;;;;;;;2.03;1.60;;;;;;;33.51;7.31;100244.75;5119941;28;20400;-48
2022/05/05 12:10:18;;;;;;;3.50;1.70;;;;;;;33.36;7.63;100249.31;5118078;27;20538;-46
2022/05/05 12:12:48;;;;;;;3.42;1.60;;;;;;;33.34;7.41;100257.56;5117358;27;20035;-45
2022/05/05 12:15:16;;;;;;;3.03;1.50;;;;;;;32.97;7.41;100241.47;5090409;28;20036;-51
2022/05/05 12:17:50;;;;;;;7.55;3.03;;;;;;;32.89;7.71;100245.06;5088707;28;20044;-49
2022/05/05 12:20:20;;;;;;;2.35;1.73;;;;;;;33.02;7.73;100247.97;5089821;28;20515;-47